KSNT

Stanley Ranger Station Airport

Stanley, Idaho, USA
METAR KSNT 242051Z AUTO 31007G18KT 13/M07 A3014 RMK AO1 SLP162 T01331067 58001
Observed Flight Rules
Sep-24 @ 20:51 UTC (33 minutes ago)
Wind
310° at 7 knots
 Gusting to 18 knots
Temperatures Readings
Current 13°C / 55°F
Dewpoint -7°C / 19°F
Humidity 24%
Altimeter 30.14" Hg
Pressure 1016.2 hPa
Elevation 1980
METAR KSNT 242051Z AUTO 31007G18KT 13/M07 A3014 RMK AO1 SLP162 T01331067 58001
Observed Flight Rules
Sep-24 @ 20:51 UTC
(33 minutes ago)
Wind
310° at 7 knots
 Gusting to 18 knots
Temperature Dewpoint
13°C / 55°F -7°C / 19°F
Humidity Altimeter Pressure
24% 30.14" Hg 1016.2 hPa